Flight Track Log - Related Links

Times and Time Zones

All times are in EDT time to prevent confusion due to time zone crossing. See the DLH493 flight status page for this flight to view local times or setup timezone preferences in your user account.

Time Position Orientation Groundspeed Altitude Reporting Facility
EDT Latitude Longitude Course Direction KTS MPH feet Rate Location/Type
Tue 07:50:32 PM 49.1910 -123.2140 281° West 169 194 100  Level FlightAware
Tue 07:50:57 PM 49.1930 -123.2450 276° West 171 197 1,000 1,855 Climbing FlightAware
Tue 07:51:27 PM 49.1910 -123.2870 266° West 181 208 1,800 1,600 Climbing FlightAware
Tue 07:51:42 PM 49.1900 -123.3050 265° West 187 215 2,200 1,650 Climbing FlightAware
Tue 07:52:07 PM 49.1870 -123.3410 263° West 195 224 2,900 1,500 Climbing FlightAware
Tue 07:52:22 PM 49.1800 -123.3570 236° Southwest 201 231 3,200 1,000 Climbing FlightAware
Tue 07:52:37 PM 49.1660 -123.3650 200° South 212 244 3,400 1,000 Climbing FlightAware
Tue 07:52:52 PM 49.1530 -123.3620 171° South 222 255 3,700 1,200 Climbing FlightAware
Tue 07:53:17 PM 49.1260 -123.3470 160° South 250 288 4,200 1,636 Climbing FlightAware
Tue 07:53:47 PM 49.0920 -123.3280 160° South 269 310 5,200 2,200 Climbing FlightAware
Tue 07:54:17 PM 49.0560 -123.3090 161° South 280 322 6,400 2,400 Climbing FlightAware
Tue 07:54:42 PM 49.0280 -123.2870 153° Southeast 277 319 7,400 2,700 Climbing FlightAware
Tue 07:54:57 PM 49.0200 -123.2640 118° Southeast 263 303 8,200 3,000 Climbing FlightAware
Tue 07:55:12 PM 49.0180 -123.2350 96° East 260 299 8,900 2,250 Climbing FlightAware
Tue 07:55:37 PM 49.0180 -123.1850 90° East 277 319 9,700 1,457 Climbing FlightAware
Tue 07:56:22 PM 49.0190 -123.0950 89° East 314 361 10,600 1,129 Climbing FlightAware
Tue 07:57:02 PM 49.0190 -122.9980 90° East 354 407 11,300 1,694 Climbing FlightAware
Tue 07:57:47 PM 49.0190 -122.8830 90° East 365 420 13,000 2,259 Climbing FlightAware
Tue 07:58:27 PM 49.0170 -122.7800 92° East 371 427 14,500 1,971 Climbing FlightAware
Tue 07:58:57 PM 49.0160 -122.7010 91° East 380 437 15,300 1,543 Climbing FlightAware
Tue 07:59:37 PM 49.0130 -122.5930 92° East 386 444 16,300 1,425 Climbing FlightAware
Tue 08:00:17 PM 49.0110 -122.4870 92° East 392 451 17,200 1,341 Climbing FlightAware
Tue 08:01:02 PM 49.0080 -122.3620 92° East 398 458 18,200 1,129 Climbing FlightAware
Tue 08:01:42 PM 49.0050 -122.2510 92° East 410 472 18,800 1,129 Climbing FlightAware
Tue 08:02:27 PM 49.0000 -122.1140 93° East 416 479 19,800 1,260 Climbing FlightAware
Tue 08:03:22 PM 48.9960 -121.9700 92° East 419 482 20,900 1,200 Climbing FlightAware
Tue 08:04:02 PM 48.9890 -121.8430 95° East 425 489 21,700 1,129 Climbing FlightAware
Tue 08:04:47 PM 48.9760 -121.7090 98° East 431 496 22,500 1,200 Climbing FlightAware
Tue 08:05:22 PM 48.9670 -121.6130 98° East 431 496 23,300 1,059 Climbing FlightAware
Tue 08:06:12 PM 48.9610 -121.4500 93° East 423 487 24,000 933 Climbing FlightAware
Tue 08:06:52 PM 48.9760 -121.3350 79° East 426 490 24,700 1,050 Climbing FlightAware
Tue 08:07:32 PM 48.9970 -121.2250 74° East 416 479 25,400 1,059 Climbing FlightAware
Tue 08:08:17 PM 49.0360 -121.1070 63° Northeast 415 478 26,200 1,129 Climbing FlightAware
Tue 08:08:57 PM 49.0730 -120.9930 64° Northeast 419 482 27,000 1,200 Climbing FlightAware
Tue 08:09:37 PM 49.1090 -120.8850 63° Northeast 422 486 27,800 1,412 Climbing FlightAware
Tue 08:10:22 PM 49.1470 -120.7680 64° Northeast 417 480 29,000 1,624 Climbing FlightAware
Tue 08:11:02 PM 49.1820 -120.6640 63° Northeast 410 472 30,100 1,624 Climbing FlightAware
Tue 08:11:47 PM 49.2200 -120.5460 64° Northeast 404 465 31,300 1,553 Climbing FlightAware
Tue 08:12:27 PM 49.2520 -120.4490 63° Northeast 399 459 32,300 1,275 Climbing FlightAware
Tue 08:13:07 PM 49.2850 -120.3490 63° Northeast 398 458 33,000 1,200 Climbing FlightAware
Tue 08:13:52 PM 49.3220 -120.2340 64° Northeast 392 451 34,000 1,200 Climbing FlightAware
Tue 08:14:32 PM 49.3520 -120.1400 64° Northeast 389 448 34,700 706 Climbing FlightAware
Tue 08:15:17 PM 49.3870 -120.0310 64° Northeast 398 458 35,000 200 Climbing FlightAware
Tue 08:16:02 PM 49.4260 -119.9100 64° Northeast 404 465 35,000  Level FlightAware
Tue 08:16:37 PM 49.4530 -119.8230 64° Northeast 404 465 35,000  Level FlightAware
Tue 08:17:22 PM 49.4910 -119.7040 64° Northeast 405 466 35,000  Level FlightAware
Tue 08:18:07 PM 49.5290 -119.5850 64° Northeast 405 466 35,000  Level FlightAware
Tue 08:18:47 PM 49.5620 -119.4790 64° Northeast 406 467 35,000  Level FlightAware
Tue 08:19:32 PM 49.5980 -119.3650 64° Northeast 403 464 35,000  Level FlightAware
Tue 08:20:12 PM 49.6300 -119.2620 64° Northeast 404 465 35,000  Level FlightAware
Tue 08:20:52 PM 49.6610 -119.1630 64° Northeast 406 467 35,000  Level FlightAware
Tue 08:21:37 PM 49.6990 -119.0370 65° Northeast 407 468 35,000  Level FlightAware
Tue 08:22:17 PM 49.7310 -118.9350 64° Northeast 408 470 35,000  Level FlightAware
Tue 08:23:02 PM 49.7650 -118.8220 65° Northeast 406 467 35,000  Level FlightAware
Tue 08:23:42 PM 49.8000 -118.7090 64° Northeast 405 466 35,000  Level FlightAware
Tue 08:24:22 PM 49.8280 -118.6150 65° Northeast 404 465 35,000  Level FlightAware
Tue 08:25:22 PM 49.8730 -118.4650 65° Northeast 406 467 35,000  Level FlightAware
Tue 08:26:17 PM 49.9220 -118.3010 65° Northeast 406 467 35,000  Level FlightAware
Tue 08:26:57 PM 49.9500 -118.2090 65° Northeast 406 467 35,000  Level FlightAware
Tue 08:27:37 PM 49.9830 -118.0950 66° East 407 468 35,000  Level FlightAware
Tue 08:28:22 PM 50.0170 -117.9820 65° Northeast 407 468 35,000  Level FlightAware
Tue 08:28:57 PM 50.0480 -117.8780 65° Northeast 408 470 35,000  Level FlightAware
Tue 08:29:42 PM 50.0790 -117.7680 66° East 407 468 35,000  Level FlightAware
Tue 08:30:42 PM 50.1230 -117.6200 65° Northeast 407 468 35,000  Level FlightAware
Tue 08:31:17 PM 50.0990 -117.7020 246° West 35,000  Level FlightAware
Tue 08:31:52 PM 50.1620 -117.4840 66° East 406 467 35,000  Level FlightAware
Tue 08:32:32 PM 50.2120 -117.3100 66° East 405 466 35,000  Level FlightAware
Tue 08:33:17 PM 50.2430 -117.2020 66° East 405 466 35,000  Level FlightAware
Tue 08:33:57 PM 50.2690 -117.1110 66° East 405 466 35,000  Level FlightAware
Tue 08:34:42 PM 50.3100 -116.9660 66° East 404 465 35,000  Level FlightAware
Tue 08:35:22 PM 50.3400 -116.8590 66° East 405 466 35,000  Level FlightAware
Tue 08:36:02 PM 50.3700 -116.7520 66° East 404 465 35,000  Level FlightAware
Tue 08:36:47 PM 50.4020 -116.6370 66° East 402 463 35,000  Level FlightAware
Tue 08:37:27 PM 50.4290 -116.5420 66° East 402 463 35,000  Level FlightAware
Tue 08:38:12 PM 50.4680 -116.3990 67° East 403 464 35,000  Level FlightAware
Tue 08:38:52 PM 50.4970 -116.2920 67° East 401 461 35,000  Level FlightAware
Tue 08:39:32 PM 50.5250 -116.1910 66° East 399 459 35,000  Level FlightAware
Tue 08:40:17 PM 50.5580 -116.0700 67° East 399 459 35,000  Level FlightAware
Tue 08:40:57 PM 50.5870 -115.9600 67° East 399 459 35,000  Level FlightAware
Tue 08:41:42 PM 50.6200 -115.8390 67° East 398 458 35,000  Level FlightAware
Tue 08:42:22 PM 50.6480 -115.7350 67° East 398 458 35,000  Level FlightAware
Tue 08:43:02 PM 50.6770 -115.6270 67° East 399 459 35,000  Level FlightAware
Tue 08:43:47 PM 50.7090 -115.5050 67° East 400 460 35,000  Level FlightAware
Tue 08:44:27 PM 50.7390 -115.3940 67° East 402 463 35,000  Level FlightAware
Tue 08:45:12 PM 50.7710 -115.2720 67° East 401 461 35,000  Level FlightAware
Tue 08:45:47 PM 50.7940 -115.1820 68° East 401 461 35,000  Level FlightAware
Tue 08:46:32 PM 50.8270 -115.0560 67° East 402 463 35,000  Level FlightAware
Tue 08:47:17 PM 50.8590 -114.9330 68° East 402 463 35,000  Level FlightAware
Tue 08:47:57 PM 50.8880 -114.8210 68° East 403 464 35,000  Level FlightAware
Tue 08:48:42 PM 50.9190 -114.7000 68° East 402 463 35,000  Level FlightAware
Tue 08:49:22 PM 50.9470 -114.5900 68° East 400 460 35,000  Level FlightAware
Tue 08:50:02 PM 50.9750 -114.4810 68° East 402 463 35,000  Level FlightAware
Tue 08:50:47 PM 51.0070 -114.3540 68° East 403 464 35,000  Level FlightAware
Tue 08:51:27 PM 51.0340 -114.2460 68° East 405 466 35,000  Level FlightAware
Tue 08:52:07 PM 51.0610 -114.1360 69° East 404 465 35,000  Level FlightAware
Tue 08:52:52 PM 51.0930 -114.0090 68° East 404 465 35,000  Level FlightAware
Tue 08:53:32 PM 51.1200 -113.8990 69° East 405 466 35,000  Level FlightAware
Tue 08:54:17 PM 51.1510 -113.7740 68° East 407 468 35,000  Level FlightAware
Tue 08:54:57 PM 51.1790 -113.6620 68° East 408 470 35,000  Level FlightAware
Tue 08:55:37 PM 51.2060 -113.5500 69° East 409 471 35,000  Level FlightAware
Tue 08:56:22 PM 51.2360 -113.4230 69° East 411 473 35,000  Level FlightAware
Tue 08:57:02 PM 51.2630 -113.3130 69° East 412 474 35,000  Level FlightAware
Tue 08:57:47 PM 51.2940 -113.1820 69° East 413 475 35,000  Level FlightAware
Tue 08:58:27 PM 51.3210 -113.0690 69° East 414 476 35,000  Level FlightAware
Tue 08:59:07 PM 51.3490 -112.9540 69° East 418 481 35,000  Level FlightAware
Tue 08:59:52 PM 51.3790 -112.8230 70° East 421 484 35,000  Level FlightAware
Tue 09:00:32 PM 51.4060 -112.7090 69° East 422 486 35,000  Level FlightAware
Tue 09:01:17 PM 51.4370 -112.5750 70° East 422 486 35,000  Level FlightAware
Tue 09:01:57 PM 51.4640 -112.4610 69° East 424 488 35,000  Level FlightAware
Tue 09:02:37 PM 51.4920 -112.3400 70° East 427 491 35,000  Level FlightAware
Tue 09:03:22 PM 51.5220 -112.2080 70° East 431 496 35,000  Level FlightAware
Tue 09:04:02 PM 51.5500 -112.0850 70° East 433 498 35,000  Level FlightAware
Tue 09:04:47 PM 51.5800 -111.9520 70° East 435 501 35,000  Level FlightAware
Tue 09:05:27 PM 51.6090 -111.8240 70° East 437 503 35,000  Level FlightAware
Tue 09:06:07 PM 51.6360 -111.7020 70° East 439 505 35,000  Level FlightAware
Tue 09:06:52 PM 51.6640 -111.5760 70° East 437 503 35,000  Level FlightAware
Tue 09:07:32 PM 51.6900 -111.4570 71° East 437 503 35,000  Level FlightAware
Tue 09:08:12 PM 51.7180 -111.3310 70° East 438 504 35,000  Level FlightAware
Tue 09:08:57 PM 51.7480 -111.1930 71° East 437 503 35,000  Level FlightAware
Tue 09:09:37 PM 51.7750 -111.0660 71° East 440 506 35,000  Level FlightAware
Tue 09:10:22 PM 51.8060 -110.9240 71° East 440 506 35,000  Level FlightAware
Tue 09:11:17 PM 51.8410 -110.7630 71° East 440 506 35,000  Level FlightAware
Tue 09:15:57 PM 52.0340 -109.8740 70° East 444 511 35,000  Level FlightAware
Tue 09:16:52 PM 52.0780 -109.7130 66° East 448 516 35,000  Level FlightAware
Tue 09:17:32 PM 52.1060 -109.6080 66° East 448 516 35,000  Level FlightAware
Tue 09:18:12 PM 52.1350 -109.5030 66° East 448 516 35,000  Level FlightAware
Tue 09:18:52 PM 52.1630 -109.3980 66° East 448 516 35,000  Level FlightAware
Tue 09:19:42 PM 52.1990 -109.2670 66° East 448 516 35,000  Level FlightAware
Tue 09:20:22 PM 52.2280 -109.1620 66° East 448 516 35,000  Level FlightAware
Tue 09:21:02 PM 52.2570 -109.0570 66° East 448 516 35,000  Level FlightAware
Tue 09:21:42 PM 52.2850 -108.9520 66° East 448 516 35,000  Level FlightAware
Tue 09:22:22 PM 52.3140 -108.8460 66° East 448 516 35,000  Level FlightAware
Tue 09:23:12 PM 52.3500 -108.7150 66° East 448 516 35,000  Level FlightAware
Tue 09:23:52 PM 52.3780 -108.6090 67° East 448 516 35,000  Level FlightAware
Tue 09:24:32 PM 52.4070 -108.5040 66° East 448 516 35,000  Level FlightAware
Tue 09:25:12 PM 52.4360 -108.3980 66° East 448 516 35,000  Level FlightAware
Tue 09:25:52 PM 52.4640 -108.2930 66° East 448 516 35,000  Level FlightAware
Tue 09:26:31 PM 52.5500 -107.8667 66° East 470 541 35,000  Level Winnipeg Center
Tue 09:27:31 PM 52.6000 -107.6500 69° East 470 541 35,000  Level Winnipeg Center
Tue 09:28:31 PM 52.6500 -107.4833 64° Northeast 470 541 35,000  Level Winnipeg Center
Tue 09:29:31 PM 52.7000 -107.2667 69° East 470 541 35,000  Level Winnipeg Center
Tue 09:30:31 PM 52.7333 -107.0500 76° East 470 541 35,000  Level Winnipeg Center
Tue 09:31:31 PM 52.7833 -106.8667 66° East 470 541 35,000  Level Winnipeg Center
Tue 09:32:31 PM 52.8333 -106.6500 69° East 470 541 35,000  Level Winnipeg Center
Tue 09:33:31 PM 52.8833 -106.4500 67° East 480 552 35,000  Level Winnipeg Center
Tue 09:34:31 PM 52.9333 -106.2333 69° East 470 541 35,000  Level Winnipeg Center
Tue 09:35:31 PM 52.9667 -106.0500 73° East 470 541 35,000  Level Winnipeg Center
Tue 09:36:31 PM 53.0167 -105.8333 69° East 480 552 35,000  Level Winnipeg Center
Tue 09:37:31 PM 53.0667 -105.6167 69° East 480 552 35,000  Level Winnipeg Center
Tue 09:38:31 PM 53.1167 -105.4333 66° East 480 552 35,000  Level Winnipeg Center
Tue 09:39:31 PM 53.1667 -105.2167 69° East 470 541 35,000  Level Winnipeg Center
Tue 09:40:31 PM 53.2167 -105.0000 69° East 470 541 35,000  Level Winnipeg Center
Tue 09:41:31 PM 53.2333 -104.8000 82° East 480 552 35,000  Level Winnipeg Center
Tue 09:42:31 PM 53.2833 -104.5833 69° East 480 552 35,000  Level Winnipeg Center
Tue 09:48:22 PM 53.5590 -103.3200 69° East 484 557 35,000  Level FlightAware
Tue 09:49:07 PM 53.5900 -103.1640 71° East 486 559 35,000  Level FlightAware
Tue 09:49:47 PM 53.6180 -103.0210 72° East 488 562 35,000  Level FlightAware
Tue 09:50:42 PM 53.6530 -102.8400 72° East 490 564 35,000  Level FlightAware
Tue 09:51:22 PM 53.6870 -102.6620 72° East 494 568 35,000  Level FlightAware
Tue 09:51:57 PM 53.7090 -102.5470 72° East 496 571 35,000  Level FlightAware
Tue 09:52:47 PM 53.7450 -102.3560 72° East 496 571 35,000  Level FlightAware
Tue 09:53:32 PM 53.7770 -102.1870 72° East 496 571 35,000  Level FlightAware
Tue 09:54:12 PM 53.8040 -102.0390 73° East 493 567 35,000  Level FlightAware
Tue 09:54:57 PM 53.8340 -101.8750 73° East 495 570 35,000  Level FlightAware
Tue 09:55:37 PM 53.8620 -101.7230 73° East 496 571 35,000  Level FlightAware
Tue 09:56:17 PM 53.8870 -101.5860 73° East 497 572 35,000  Level FlightAware
Tue 09:56:57 PM 53.9130 -101.4430 73° East 498 573 35,000  Level FlightAware
Tue 09:57:57 PM 53.9530 -101.2170 73° East 497 572 35,000  Level FlightAware
Tue 09:58:52 PM 54.0050 -101.0260 65° Northeast 488 562 35,000  Level FlightAware
Tue 09:59:47 PM 54.0700 -100.8560 57° Northeast 488 562 35,000  Level FlightAware
Tue 10:00:22 PM 54.1180 -100.7320 57° Northeast 490 564 35,000  Level FlightAware
Tue 10:01:17 PM 54.1710 -100.5940 57° Northeast 489 563 35,000  Level FlightAware
Tue 10:02:02 PM 54.2400 -100.4160 56° Northeast 488 562 35,000  Level FlightAware
Tue 10:02:47 PM 54.2810 -100.3080 57° Northeast 488 562 35,000  Level FlightAware
Tue 10:03:27 PM 54.3230 -100.1970 57° Northeast 488 562 35,000  Level FlightAware
Tue 10:04:07 PM 54.3650 -100.0870 57° Northeast 488 562 35,000  Level FlightAware
Tue 10:04:57 PM 54.4170 -99.9490 57° Northeast 488 562 35,000  Level FlightAware
Tue 10:05:37 PM 54.4590 -99.8380 57° Northeast 488 562 35,000  Level FlightAware
Tue 10:06:17 PM 54.5010 -99.7270 57° Northeast 488 562 35,000  Level FlightAware
Tue 10:07:07 PM 54.5530 -99.5880 57° Northeast 488 562 35,000  Level FlightAware
Tue 10:07:47 PM 54.5950 -99.4770 57° Northeast 488 562 35,000  Level FlightAware
Tue 10:08:27 PM 54.6370 -99.3660 57° Northeast 488 562 35,000  Level FlightAware
Tue 10:09:07 PM 54.6790 -99.2550 57° Northeast 488 562 35,000  Level FlightAware
Tue 10:09:47 PM 54.7200 -99.1430 58° Northeast 488 562 35,000  Level FlightAware
Tue 10:10:27 PM 54.7620 -99.0320 57° Northeast 488 562 35,000  Level FlightAware
Tue 10:11:17 PM 54.8140 -98.8920 57° Northeast 488 562 35,000  Level FlightAware
Tue 10:11:57 PM 54.8560 -98.7810 57° Northeast 488 562 35,000  Level FlightAware
Tue 10:12:31 PM 55.0167 -98.3000 57° Northeast 490 564 35,000  Level Winnipeg Center
Tue 10:13:31 PM 55.0833 -98.1000 60° Northeast 500 575 35,000  Level Winnipeg Center
Tue 10:14:31 PM 55.1500 -97.9000 60° Northeast 500 575 35,000  Level Winnipeg Center
Tue 10:15:31 PM 55.2167 -97.7000 60° Northeast 500 575 35,000  Level Winnipeg Center
Tue 10:16:31 PM 55.2833 -97.4833 62° Northeast 500 575 35,000  Level Winnipeg Center
Tue 10:17:31 PM 55.3667 -97.2833 54° Northeast 490 564 35,000  Level Winnipeg Center
Tue 10:18:31 PM 55.4333 -97.0833 60° Northeast 500 575 35,000  Level Winnipeg Center
Tue 10:19:31 PM 55.5000 -96.8667 61° Northeast 500 575 35,000  Level Winnipeg Center
Tue 10:20:31 PM 55.5667 -96.6667 59° Northeast 500 575 35,000  Level Winnipeg Center
Tue 10:21:31 PM 55.6500 -96.4333 58° Northeast 500 575 35,000  Level Winnipeg Center
Tue 10:22:31 PM 55.7167 -96.2167 61° Northeast 500 575 35,000  Level Winnipeg Center
Tue 10:23:31 PM 55.7833 -96.0167 59° Northeast 500 575 35,000  Level Winnipeg Center
Tue 10:24:31 PM 55.8500 -95.8000 61° Northeast 500 575 35,000  Level Winnipeg Center
Tue 10:25:31 PM 55.9333 -95.5833 55° Northeast 500 575 35,000  Level Winnipeg Center
Tue 10:26:31 PM 56.0000 -95.3833 59° Northeast 500 575 35,000  Level Winnipeg Center
Tue 10:27:31 PM 56.0500 -95.1333 70° East 500 575 35,000  Level Winnipeg Center
Tue 10:28:31 PM 56.1167 -94.9167 61° Northeast 500 575 35,000  Level Winnipeg Center
Tue 10:29:31 PM 56.1833 -94.7000 61° Northeast 500 575 35,000  Level Winnipeg Center
Tue 10:29:48 PM 56.1833 -94.6000 90° East 500 575 35,000  Level Edmonton Center
Tue 10:31:31 PM 56.3333 -94.2833 49° Northeast 510 587 35,000  Level Winnipeg Center
Tue 10:31:48 PM 56.3167 -94.1667 104° East 500 575 35,000  Level Edmonton Center
Tue 10:32:48 PM 56.3833 -93.9500 61° Northeast 500 575 35,000  Level Edmonton Center
Tue 10:33:48 PM 56.4500 -93.7167 63° Northeast 500 575 35,000  Level Edmonton Center
Tue 10:34:48 PM 56.5333 -93.4833 57° Northeast 500 575 35,000  Level Edmonton Center
Tue 10:35:48 PM 56.6000 -93.2667 61° Northeast 500 575 35,000  Level Edmonton Center
Tue 10:36:48 PM 56.6667 -93.0333 62° Northeast 500 575 35,000  Level Edmonton Center
Tue 10:37:48 PM 56.7333 -92.8167 61° Northeast 500 575 35,000  Level Edmonton Center
Tue 10:38:48 PM 56.7833 -92.5833 69° East 500 575 35,000  Level Edmonton Center
Tue 10:39:48 PM 56.8500 -92.3333 64° Northeast 500 575 35,000  Level Edmonton Center
Tue 10:40:48 PM 56.9167 -92.1333 59° Northeast 500 575 35,000  Level Edmonton Center
Tue 10:42:31 PM 57.0333 -91.7667 60° Northeast 490 564 35,000  Level Winnipeg Center
Tue 10:43:48 PM 57.1000 -91.4333 70° East 500 575 35,000  Level Edmonton Center
Tue 10:44:48 PM 57.1500 -91.1833 70° East 500 575 35,000  Level Edmonton Center
Tue 10:45:48 PM 57.2167 -90.9667 60° Northeast 500 575 35,000  Level Edmonton Center
Tue 10:46:48 PM 57.2667 -90.7167 70° East 500 575 35,000  Level Edmonton Center
Tue 10:47:48 PM 57.3333 -90.4833 62° Northeast 500 575 35,000  Level Edmonton Center
Tue 10:48:48 PM 57.4000 -90.2500 62° Northeast 500 575 35,000  Level Edmonton Center
Tue 10:49:48 PM 57.4667 -90.0000 64° Northeast 500 575 35,000  Level Edmonton Center
Tue 10:50:48 PM 57.5000 -89.7667 75° East 500 575 35,000  Level Edmonton Center
Tue 10:51:48 PM 57.5500 -89.5167 69° East 500 575 35,000  Level Edmonton Center
Tue 10:52:48 PM 57.6167 -89.2833 62° Northeast 500 575 35,000  Level Edmonton Center
Tue 10:53:48 PM 57.6667 -89.0333 69° East 500 575 35,000  Level Edmonton Center
Tue 10:54:48 PM 57.7000 -88.8000 75° East 500 575 35,000  Level Edmonton Center
Tue 10:55:48 PM 57.7667 -88.5500 63° Northeast 500 575 35,000  Level Edmonton Center
Tue 10:56:48 PM 57.8167 -88.2833 71° East 500 575 35,000  Level Edmonton Center
Tue 10:57:48 PM 57.8667 -88.0333 69° East 510 587 35,000  Level Edmonton Center
Tue 10:58:48 PM 57.9167 -87.7833 69° East 510 587 35,000  Level Edmonton Center
Tue 10:59:48 PM 57.9500 -87.5333 76° East 510 587 35,000  Level Edmonton Center
Tue 11:00:48 PM 58.0000 -87.2833 69° East 510 587 35,000  Level Edmonton Center
Tue 11:01:48 PM 58.0500 -87.0167 70° East 510 587 35,000  Level Edmonton Center
Tue 11:02:48 PM 58.1000 -86.7667 69° East 510 587 35,000  Level Edmonton Center
Tue 11:03:06 PM 58.1333 -86.8500 307° West 520 598 35,000  Level Montreal Center
Tue 11:04:06 PM 58.2000 -86.6167 61° Northeast 520 598 35,000  Level Montreal Center
Tue 11:04:48 PM 58.2000 -86.2500 90° East 510 587 35,000  Level Edmonton Center
Tue 11:05:48 PM 58.2500 -85.9833 70° East 510 587 35,000  Level Edmonton Center
Tue 11:06:48 PM 58.2833 -85.7333 76° East 510 587 35,000  Level Edmonton Center
Tue 11:07:48 PM 58.3333 -85.4667 70° East 510 587 35,000  Level Edmonton Center
Tue 11:08:48 PM 58.3667 -85.2167 76° East 510 587 35,000  Level Edmonton Center
Tue 11:09:48 PM 58.4167 -84.9500 70° East 510 587 35,000  Level Edmonton Center
Tue 11:10:48 PM 58.4667 -84.6833 70° East 510 587 35,000  Level Edmonton Center
Tue 11:11:48 PM 58.5000 -84.4167 76° East 510 587 35,000  Level Edmonton Center
Tue 11:12:48 PM 58.5500 -84.1500 70° East 510 587 35,000  Level Edmonton Center
Tue 11:13:48 PM 58.6000 -83.9000 69° East 520 598 35,000  Level Edmonton Center
Tue 11:14:06 PM 58.6333 -83.9500 322° Northwest 520 598 35,000  Level Montreal Center
Tue 11:14:48 PM 58.6333 -83.6333 90° East 520 598 35,000  Level Edmonton Center
Tue 11:15:48 PM 58.6667 -83.3667 76° East 520 598 35,000  Level Edmonton Center
Tue 11:16:06 PM 58.7167 -83.4167 333° Northwest 520 598 35,000  Level Montreal Center
Tue 11:16:48 PM 58.7000 -83.1000 96° East 520 598 35,000  Level Edmonton Center
Tue 11:17:48 PM 58.7500 -82.8333 70° East 520 598 35,000  Level Edmonton Center
Tue 11:18:48 PM 58.7833 -82.5667 76° East 510 587 35,000  Level Edmonton Center
Tue 11:19:06 PM 58.8500 -82.6167 339° North 520 598 35,000  Level Montreal Center
Tue 11:20:06 PM 58.8667 -82.3667 83° East 520 598 35,000  Level Montreal Center
Tue 11:21:06 PM 58.9167 -82.0833 71° East 520 598 35,000  Level Montreal Center
Tue 11:22:06 PM 58.9500 -81.8333 75° East 520 598 35,000  Level Montreal Center
Tue 11:23:06 PM 59.0000 -81.5333 72° East 520 598 35,000  Level Montreal Center
Tue 11:23:48 PM 58.9833 -81.2000 95° East 520 598 35,000  Level Edmonton Center
Tue 11:24:48 PM 59.0167 -80.9167 77° East 520 598 35,000  Level Edmonton Center
Tue 11:25:48 PM 59.0500 -80.6500 76° East 520 598 35,000  Level Edmonton Center
Tue 11:26:06 PM 59.1000 -80.7000 333° Northwest 520 598 35,000  Level Montreal Center
Tue 11:27:06 PM 59.1333 -80.4500 75° East 520 598 35,000  Level Montreal Center
Tue 11:27:48 PM 59.1167 -80.1000 95° East 520 598 35,000  Level Edmonton Center
Tue 11:28:48 PM 59.1500 -79.8333 76° East 530 610 35,000  Level Edmonton Center
Tue 11:29:06 PM 59.2000 -79.9000 326° Northwest 530 610 35,000  Level Montreal Center
Tue 11:29:48 PM 59.1833 -79.5333 95° East 520 598 35,000  Level Edmonton Center
Tue 11:30:48 PM 59.2167 -79.2500 77° East 520 598 35,000  Level Edmonton Center
Tue 11:31:48 PM 59.2500 -78.9833 76° East 520 598 35,000  Level Edmonton Center
Tue 11:32:48 PM 59.2833 -78.7000 77° East 520 598 35,000  Level Edmonton Center
Tue 11:33:48 PM 59.3167 -78.4333 76° East 520 598 35,000  Level Edmonton Center
Tue 11:34:48 PM 59.3500 -78.1500 77° East 530 610 35,000  Level Edmonton Center
Tue 11:35:48 PM 59.3667 -77.8833 83° East 530 610 35,000  Level Edmonton Center
Tue 11:36:48 PM 59.4000 -77.6000 77° East 530 610 35,000  Level Edmonton Center
Tue 11:37:06 PM 59.4500 -77.6500 333° Northwest 520 598 35,000  Level Montreal Center
Tue 11:38:06 PM 59.4833 -77.3500 78° East 530 610 35,000  Level Montreal Center
Tue 11:38:48 PM 59.4500 -77.0167 101° East 530 610 35,000  Level Edmonton Center
Tue 11:39:48 PM 59.4833 -76.7333 77° East 530 610 35,000  Level Edmonton Center
Tue 11:40:48 PM 59.5000 -76.4667 83° East 530 610 35,000  Level Edmonton Center
Tue 11:41:06 PM 59.5667 -76.4833 353° North 530 610 35,000  Level Montreal Center
Tue 11:41:48 PM 59.5500 -76.1667 96° East 530 610 35,000  Level Edmonton Center
Tue 11:42:48 PM 59.5667 -75.8667 84° East 530 610 35,000  Level Edmonton Center
Tue 11:43:06 PM 59.6167 -75.9333 326° Northwest 530 610 35,000  Level Montreal Center
Tue 11:43:48 PM 59.6000 -75.5833 95° East 530 610 35,000  Level Edmonton Center
Tue 11:44:48 PM 59.6167 -75.3000 83° East 530 610 35,000  Level Edmonton Center
Tue 11:45:06 PM 59.6667 -75.3667 326° Northwest 530 610 35,000  Level Montreal Center
Tue 11:46:06 PM 59.7000 -75.0667 77° East 530 610 35,000  Level Montreal Center
Tue 11:47:06 PM 59.7167 -74.7667 84° East 530 610 35,000  Level Montreal Center
Tue 11:47:45 PM 59.7333 -74.6500 74° East 520 598 35,000  Level Gander Center
Tue 11:48:06 PM 59.7333 -74.5000 90° East 530 610 35,000  Level Montreal Center
Tue 11:49:06 PM 59.7667 -74.1833 78° East 530 610 35,000  Level Montreal Center
Tue 11:50:06 PM 59.7833 -73.8833 84° East 530 610 35,000  Level Montreal Center
Tue 11:51:06 PM 59.8167 -73.6167 76° East 530 610 35,000  Level Montreal Center
Tue 11:52:06 PM 59.8167 -73.3167 90° East 540 621 35,000  Level Montreal Center
Tue 11:53:06 PM 59.8500 -73.0167 77° East 540 621 35,000  Level Montreal Center
Tue 11:54:06 PM 59.8667 -72.7167 84° East 540 621 35,000  Level Montreal Center
Tue 11:55:06 PM 59.8833 -72.4167 84° East 530 610 35,000  Level Montreal Center
Tue 11:56:06 PM 59.9167 -72.1333 77° East 540 621 35,000  Level Montreal Center
Tue 11:57:06 PM 59.9167 -71.8333 90° East 540 621 35,000  Level Montreal Center
Tue 11:58:06 PM 59.9500 -71.5333 77° East 530 610 35,000  Level Montreal Center
Tue 11:59:06 PM 59.9500 -71.2333 90° East 530 610 35,000  Level Montreal Center
Wed 12:00:06 AM 59.9667 -70.9500 83° East 530 610 35,000  Level Montreal Center
Wed 12:01:06 AM 59.9833 -70.6500 84° East 540 621 35,000  Level Montreal Center
Wed 12:02:06 AM 60.0000 -70.3500 84° East 540 621 35,000  Level Montreal Center
Wed 12:03:06 AM 60.0167 -70.0333 84° East 550 633 35,000  Level Montreal Center
Wed 12:04:06 AM 60.0333 -69.7333 84° East 540 621 35,000  Level Montreal Center
Wed 12:05:06 AM 60.0667 -69.4667 76° East 540 621 35,000  Level Montreal Center
Wed 12:06:06 AM 60.1000 -69.1500 78° East 550 633 35,000  Level Montreal Center
Wed 12:07:06 AM 60.1333 -68.8667 77° East 540 621 35,000  Level Montreal Center
Wed 12:08:06 AM 60.1500 -68.5667 84° East 540 621 35,000  Level Montreal Center
Wed 12:09:06 AM 60.1833 -68.2500 78° East 540 621 35,000  Level Montreal Center
Wed 12:10:06 AM 60.2167 -67.9667 77° East 540 621 35,000  Level Montreal Center
Wed 12:11:06 AM 60.2333 -67.6667 83° East 540 621 35,000  Level Montreal Center
Wed 12:12:06 AM 60.2667 -67.3833 77° East 540 621 35,000  Level Montreal Center
Wed 12:13:06 AM 60.3000 -67.0667 78° East 560 644 35,000  Level Montreal Center
Wed 12:14:06 AM 60.3167 -66.7833 83° East 530 610 35,000  Level Montreal Center
Wed 12:15:06 AM 60.3500 -66.4667 78° East 540 621 35,000  Level Montreal Center
Wed 12:15:45 AM 60.3667 -66.3333 76° East 540 621 35,000  Level Gander Center
Wed 12:16:45 AM 60.3833 -66.0333 83° East 550 633 35,000 200 Level Gander Center
Wed 12:17:45 AM 60.4000 -65.7333 83° East 550 633 35,400 444 Climbing Gander Center
Wed 12:18:06 AM 60.4167 -65.5667 78° East 550 633 35,600 500 Climbing Montreal Center
Wed 12:18:45 AM 60.4167 -65.4333 90° East 550 633 35,900 400 Climbing Gander Center
Wed 12:19:06 AM 60.4333 -65.2500 79° East 540 621 36,000 74 Climbing Montreal Center
Wed 12:20:06 AM 60.4500 -64.9667 83° East 550 633 36,000  Level Montreal Center
Wed 12:21:06 AM 60.4667 -64.6500 84° East 530 610 36,000  Level Montreal Center
Wed 12:21:45 AM 60.4833 -64.5167 76° East 540 621 36,000  Level Gander Center
Wed 12:22:06 AM 60.5000 -64.3333 79° East 540 621 36,000  Level Montreal Center
Wed 12:23:06 AM 60.5000 -64.0500 90° East 530 610 36,000  Level Montreal Center
Wed 12:23:45 AM 60.5167 -63.9167 76° East 550 633 36,000  Level Gander Center
Wed 12:24:45 AM 60.5500 -63.6167 77° East 560 644 36,000  Level Gander Center
Wed 12:25:06 AM 60.5500 -63.4167 90° East 550 633 36,000  Level Montreal Center
Wed 12:25:44 AM 60.5500 -63.2833 90° East 560 644 36,000  Level Gander Center
Wed 12:26:44 AM 60.6000 -62.9667 72° East 550 633 36,000  Level Gander Center
Wed 12:27:44 AM 60.6500 -62.6667 71° East 560 644 36,000  Level Gander Center
Wed 12:28:45 AM 60.7000 -62.4000 69° East 550 633 36,000  Level Gander Center
Wed 12:29:45 AM 60.7333 -62.1000 77° East 550 633 36,000  Level Gander Center
Wed 12:30:06 AM 60.7500 -61.9167 79° East 550 633 36,000  Level Montreal Center
Wed 12:31:06 AM 60.7667 -61.6500 83° East 550 633 36,000  Level Montreal Center
Wed 12:31:44 AM 60.8167 -61.4833 58° Northeast 550 633 36,000  Level Gander Center
Wed 12:32:06 AM 60.8333 -61.3500 76° East 560 644 36,000  Level Montreal Center
Wed 12:33:06 AM 60.8667 -60.9833 79° East 560 644 36,000  Level Montreal Center
Wed 12:33:45 AM 60.9000 -60.8667 60° Northeast 550 633 36,000  Level Gander Center
Wed 12:34:45 AM 60.9333 -60.5667 77° East 550 633 36,000  Level Gander Center
Wed 12:35:06 AM 60.9500 -60.4500 74° East 550 633 36,000  Level Montreal Center
Wed 12:36:06 AM 60.9833 -60.1167 78° East 550 633 36,000  Level Montreal Center
Wed 12:36:45 AM 61.0167 -59.9833 63° Northeast 550 633 36,000  Level Gander Center
Wed 12:37:06 AM 61.0167 -59.8167 90° East 550 633 36,000  Level Montreal Center
Wed 12:38:06 AM 61.0333 -59.5333 83° East 550 633 36,000  Level Montreal Center
Wed 12:39:06 AM 61.0333 -59.1667 90° East 540 621 36,000  Level Montreal Center
Wed 12:39:44 AM 61.0500 -59.0167 77° East 550 633 36,000  Level Gander Center
Wed 12:40:06 AM 61.0500 -58.8500 90° East 550 633 36,000  Level Montreal Center
Wed 12:41:06 AM 61.0667 -58.5167 84° East 550 633 36,000  Level Montreal Center
Wed 12:41:45 AM 61.0667 -58.4000 90° East 550 633 36,000  Level Gander Center
Wed 12:42:45 AM 61.0833 -58.0833 84° East 550 633 36,000  Level Gander Center
Wed 12:43:45 AM 61.0667 -57.7500 96° East 550 633 36,000  Level Gander Center
Wed 12:44:45 AM 61.0833 -57.4333 84° East 550 633 36,000  Level Gander Center
Wed 12:45:45 AM 61.0833 -57.1167 90° East 550 633 36,000  Level Gander Center
Wed 12:46:45 AM 61.1000 -56.7833 84° East 550 633 36,000  Level Gander Center
Wed 12:47:45 AM 61.1000 -56.4667 90° East 550 633 36,000  Level Gander Center
Wed 12:48:45 AM 61.1000 -56.1500 90° East 550 633 36,000  Level Gander Center
Wed 12:49:45 AM 61.1167 -55.8500 83° East 550 633 36,000  Level Gander Center
Wed 12:50:45 AM 61.1000 -55.5333 96° East 550 633 36,000  Level Gander Center
Wed 12:51:45 AM 61.1000 -55.2333 90° East 540 621 36,000  Level Gander Center
Wed 12:52:45 AM 61.1000 -54.9167 90° East 550 633 36,000  Level Gander Center
Wed 12:53:45 AM 61.1000 -54.6000 90° East 550 633 36,000  Level Gander Center
Wed 12:59:57 AM 61.0740 -52.7500 90° East 540 621 36,000  Level FlightAware
Wed 01:00:42 AM 61.0710 -52.5400 92° East 542 624 36,000  Level FlightAware
Wed 01:01:37 AM 67.0650 -47.9560 16° North 543 625 36,000  Level FlightAware
Wed 01:02:17 AM 67.0620 -47.7370 92° East 543 625 36,000  Level FlightAware
Wed 01:02:57 AM 67.0590 -47.5180 92° East 543 625 36,000  Level FlightAware
Wed 01:03:37 AM 67.0560 -47.2990 92° East 543 625 36,000  Level FlightAware
Wed 01:04:17 AM 67.0530 -47.0800 92° East 543 625 36,000  Level FlightAware
Wed 01:05:07 AM 67.0490 -46.8060 92° East 543 625 36,000  Level FlightAware
Wed 01:05:47 AM 67.0460 -46.5870 92° East 543 625 36,000  Level FlightAware
Wed 01:06:27 AM 67.0430 -46.3680 92° East 543 625 36,000  Level FlightAware
Wed 01:07:07 AM 67.0400 -46.1490 92° East 543 625 36,000  Level FlightAware
Wed 01:07:47 AM 67.0370 -45.9310 92° East 543 625 36,000  Level FlightAware
Wed 01:08:37 AM 67.0330 -45.6570 92° East 543 625 36,000  Level FlightAware
Wed 01:09:17 AM 67.0300 -45.4380 92° East 543 625 36,000  Level FlightAware
Wed 01:09:57 AM 67.0270 -45.2200 92° East 543 625 36,000  Level FlightAware
Wed 01:10:37 AM 67.0240 -45.0010 92° East 543 625 36,000  Level FlightAware
Wed 01:11:44 AM 61.0333 -49.0500 92° East 540 621 36,000  Level Gander Center
Wed 01:12:44 AM 61.0333 -48.7500 90° East 540 621 36,000  Level Gander Center
Wed 01:13:44 AM 61.0500 -48.4667 83° East 540 621 36,000  Level Gander Center
Wed 01:14:44 AM 61.0500 -48.1500 90° East 540 621 36,000  Level Gander Center
Wed 01:15:44 AM 61.0833 -47.8667 76° East 540 621 36,000  Level Gander Center
Wed 01:16:44 AM 61.0833 -47.5167 90° East 540 621 36,000  Level Gander Center
Wed 01:17:44 AM 61.0833 -47.2333 90° East 530 610 36,000  Level Gander Center
Wed 01:18:44 AM 61.0833 -46.9500 90° East 530 610 36,000  Level Gander Center
Wed 01:19:44 AM 61.0833 -46.6333 90° East 530 610 36,000  Level Gander Center
Wed 01:20:44 AM 61.0833 -46.3167 90° East 530 610 36,000  Level Gander Center
Wed 01:21:44 AM 61.1000 -46.0333 83° East 530 610 36,000  Level Gander Center
Wed 01:22:44 AM 61.1000 -45.7167 90° East 530 610 36,000  Level Gander Center
Wed 01:23:44 AM 61.1000 -45.4333 90° East 530 610 36,000  Level Gander Center
Wed 01:24:44 AM 61.1000 -45.1167 90° East 530 610 36,000  Level Gander Center
Wed 01:25:44 AM 61.1000 -44.8000 90° East 530 610 36,000  Level Gander Center
Wed 01:26:44 AM 61.1000 -44.5167 90° East 530 610 36,000  Level Gander Center
Wed 01:27:44 AM 61.1000 -44.2000 90° East 530 610 36,000  Level Gander Center
Wed 01:28:44 AM 61.1000 -43.9167 90° East 530 610 36,000  Level Gander Center
Wed 01:29:44 AM 61.1000 -43.6167 90° East 530 610 36,000  Level Gander Center
Wed 01:30:44 AM 61.0833 -43.3000 96° East 530 610 36,000  Level Gander Center
Wed 01:31:44 AM 61.0833 -43.0167 90° East 530 610 36,000  Level Gander Center
Wed 01:32:44 AM 61.0833 -42.7000 90° East 530 610 36,000  Level Gander Center
Wed 01:33:44 AM 61.0667 -42.4167 97° East 530 610 36,000  Level Gander Center
Wed 01:34:44 AM 61.0667 -42.1000 90° East 530 610 36,000  Level Gander Center
Wed 01:35:44 AM 61.0500 -41.8000 96° East 530 610 36,000  Level Gander Center
Wed 01:36:44 AM 61.0500 -41.5167 90° East 530 610 36,000  Level Gander Center
Wed 01:37:44 AM 61.0333 -41.2000 96° East 530 610 36,000  Level Gander Center
Wed 01:38:44 AM 61.0333 -40.8833 90° East 530 610 36,000  Level Gander Center
Wed 01:39:44 AM 61.0167 -40.6167 97° East 530 610 36,000  Level Gander Center
Wed 01:40:44 AM 61.0167 -40.2833 90° East 530 610 36,000  Level Gander Center
Wed 01:41:44 AM 61.0167 -40.0000 90° East 530 610 36,000  Level Gander Center
Wed 01:42:44 AM 60.9833 -39.7000 103° East 530 610 36,000  Level Gander Center
Wed 01:43:44 AM 60.9667 -39.4000 96° East 530 610 36,000  Level Gander Center
Wed 01:44:44 AM 60.9667 -39.1167 90° East 530 610 36,000  Level Gander Center
Wed 01:45:44 AM 60.9333 -38.8167 103° East 530 610 36,000  Level Gander Center
Wed 01:46:44 AM 60.9167 -38.5167 96° East 530 610 36,000  Level Gander Center
Wed 01:47:44 AM 60.9000 -38.2333 97° East 530 610 36,000  Level Gander Center
Wed 01:48:44 AM 60.8667 -37.9333 103° East 530 610 36,000  Level Gander Center
Wed 01:49:44 AM 60.8500 -37.6667 97° East 530 610 36,000  Level Gander Center
Wed 01:50:44 AM 60.8167 -37.3667 103° East 530 610 36,000  Level Gander Center
Wed 01:51:44 AM 60.8000 -37.0500 96° East 530 610 36,000  Level Gander Center
Wed 01:52:44 AM 60.7833 -36.7833 97° East 530 610 36,000  Level Gander Center
Wed 01:53:44 AM 60.7500 -36.4833 103° East 530 610 36,000  Level Gander Center
Wed 01:54:44 AM 60.7167 -36.1833 103° East 530 610 36,000  Level Gander Center
Wed 01:55:44 AM 60.7000 -35.9000 97° East 530 610 36,000  Level Gander Center
Wed 01:56:44 AM 60.6667 -35.6167 103° East 530 610 36,000  Level Gander Center
Wed 01:57:44 AM 60.6500 -35.3333 97° East 520 598 36,000  Level Gander Center
Wed 01:59:00 AM 60.6105 -34.9882 103° East  Level FlightAware
Wed 02:00:02 AM 60.5667 -34.6500 103° East 530 610 36,000  Level Gander Center
Wed 02:01:02 AM 60.5500 -34.3833 97° East 530 610 36,000  Level Gander Center
Wed 02:03:00 AM 60.4796 -33.8533 102° East  Level FlightAware
Wed 02:10:00 AM 60.2599 -31.9619 102° East  Level FlightAware
Wed 02:11:00 AM 60.2263 -31.6939 104° East  Level FlightAware
Wed 02:12:00 AM 60.1922 -31.4263 104° East  Level FlightAware
Wed 02:13:00 AM 60.1576 -31.1594 105° East  Level FlightAware
Wed 02:14:00 AM 60.1224 -30.8930 105° East  Level FlightAware
Wed 02:15:00 AM 60.0867 -30.6272 105° East  Level FlightAware
Wed 02:16:00 AM 60.0504 -30.3620 105° East  Level FlightAware
Wed 02:17:00 AM 60.0137 -30.0973 105° East  Level FlightAware
Wed 02:18:00 AM 59.9896 -29.8279 97° East  Level FlightAware
Wed 02:19:00 AM 59.9727 -29.5557 97° East  Level FlightAware
Wed 02:20:00 AM 59.9552 -29.2838 97° East  Level FlightAware
Wed 02:21:00 AM 59.9372 -29.0122 97° East  Level FlightAware
Wed 02:22:00 AM 59.9187 -28.7409 98° East  Level FlightAware
Wed 02:23:00 AM 59.8995 -28.4699 98° East  Level FlightAware
Wed 02:24:00 AM 59.8798 -28.1992 98° East  Level FlightAware
Wed 02:25:00 AM 59.8596 -27.9288 98° East  Level FlightAware
Wed 02:26:00 AM 59.8388 -27.6588 99° East  Level FlightAware
Wed 02:27:00 AM 59.8175 -27.3891 99° East  Level FlightAware
Wed 02:28:00 AM 59.7956 -27.1197 99° East  Level FlightAware
Wed 02:29:00 AM 59.7731 -26.8507 99° East  Level FlightAware
Wed 02:30:00 AM 59.7501 -26.5821 100° East  Level FlightAware
Wed 02:31:00 AM 59.7266 -26.3139 100° East  Level FlightAware
Wed 02:32:00 AM 59.7025 -26.0460 100° East  Level FlightAware
Wed 02:33:00 AM 59.6778 -25.7786 100° East  Level FlightAware
Wed 02:34:00 AM 59.6527 -25.5115 100° East  Level FlightAware
Wed 02:35:00 AM 59.6269 -25.2448 101° East  Level FlightAware
Wed 02:36:00 AM 59.6007 -24.9785 101° East  Level FlightAware
Wed 02:37:00 AM 59.5739 -24.7127 101° East  Level FlightAware
Wed 02:38:00 AM 59.5466 -24.4473 101° East  Level FlightAware
Wed 02:39:00 AM 59.5187 -24.1823 102° East  Level FlightAware
Wed 02:40:00 AM 59.4903 -23.9178 102° East  Level FlightAware
Wed 02:41:00 AM 59.4613 -23.6537 102° East  Level FlightAware
Wed 02:42:00 AM 59.4319 -23.3901 102° East  Level FlightAware
Wed 02:43:00 AM 59.4019 -23.1269 103° East  Level FlightAware
Wed 02:44:00 AM 59.3713 -22.8642 103° East  Level FlightAware
Wed 02:45:00 AM 59.3403 -22.6020 103° East  Level FlightAware
Wed 02:46:00 AM 59.3087 -22.3402 103° East  Level FlightAware
Wed 02:47:00 AM 59.2766 -22.0790 103° East  Level FlightAware
Wed 02:48:00 AM 59.2439 -21.8182 104° East  Level FlightAware
Wed 02:49:00 AM 59.2108 -21.5580 104° East  Level FlightAware
Wed 02:50:00 AM 59.1771 -21.2983 104° East  Level FlightAware
Wed 02:51:00 AM 59.1429 -21.0390 104° East  Level FlightAware
Wed 02:52:00 AM 59.1082 -20.7803 105° East  Level FlightAware
Wed 02:53:00 AM 59.0730 -20.5222 105° East  Level FlightAware
Wed 02:54:00 AM 59.0373 -20.2645 105° East  Level FlightAware
Wed 02:55:00 AM 59.0010 -20.0074 105° East  Level FlightAware
Wed 02:56:00 AM 58.9625 -19.7519 106° East  Level FlightAware
Wed 02:57:00 AM 58.9234 -19.4969 106° East  Level FlightAware
Wed 02:58:00 AM 58.8838 -19.2425 107° East  Level FlightAware
Wed 02:59:00 AM 58.8438 -18.9887 107° East  Level FlightAware
Wed 03:00:00 AM 58.8032 -18.7355 107° East  Level FlightAware
Wed 03:01:00 AM 58.7621 -18.4829 107° East  Level FlightAware
Wed 03:02:00 AM 58.7205 -18.2309 108° East  Level FlightAware
Wed 03:03:00 AM 58.6784 -17.9795 108° East  Level FlightAware
Wed 03:04:00 AM 58.6359 -17.7287 108° East  Level FlightAware
Wed 03:05:00 AM 58.5928 -17.4786 108° East  Level FlightAware
Wed 03:06:00 AM 58.5493 -17.2290 108° East  Level FlightAware
Wed 03:07:00 AM 58.5053 -16.9801 109° East  Level FlightAware
Wed 03:08:00 AM 58.4608 -16.7318 109° East  Level FlightAware
Wed 03:09:00 AM 58.4158 -16.4841 109° East  Level FlightAware
Wed 03:10:00 AM 58.3704 -16.2370 109° East  Level FlightAware
Wed 03:11:00 AM 58.3245 -15.9906 109° East  Level FlightAware
Wed 03:12:00 AM 58.2781 -15.7449 110° East  Level FlightAware
Wed 03:13:00 AM 58.2312 -15.4998 110° East  Level FlightAware
Wed 03:14:00 AM 58.1839 -15.2553 110° East  Level FlightAware
Wed 03:15:00 AM 58.1361 -15.0115 110° East  Level FlightAware
Wed 03:16:00 AM 58.0878 -14.7683 110° East  Level FlightAware
Wed 03:17:00 AM 58.0391 -14.5258 111° Southeast  Level FlightAware
Wed 03:18:00 AM 57.9899 -14.2840 111° Southeast  Level FlightAware
Wed 03:19:00 AM 57.9403 -14.0428 111° Southeast  Level FlightAware
Wed 03:20:00 AM 57.8902 -13.8023 111° Southeast  Level FlightAware
Wed 03:21:00 AM 57.8397 -13.5625 112° Southeast  Level FlightAware
Wed 03:21:22 AM 58.2230 -11.6490 112° Southeast 564 649 36,000  Level FlightAware
Wed 03:22:00 AM 57.7887 -13.3233 112° Southeast  Level FlightAware
Wed 03:22:07 AM 58.1950 -11.4330 104° East 561 646 36,000  Level FlightAware
Wed 03:22:47 AM 58.1700 -11.2380 104° East 561 646 36,000  Level FlightAware
Wed 03:23:27 AM 58.1490 -11.0680 103° East 560 644 36,000  Level FlightAware
Wed 03:24:12 AM 58.1150 -10.8290 105° East 558 642 36,000  Level FlightAware
Wed 03:24:52 AM 58.0890 -10.6400 105° East 560 644 36,000  Level FlightAware
Wed 03:25:37 AM 58.0610 -10.4310 104° East 564 649 36,000  Level FlightAware
Wed 03:26:17 AM 58.0330 -10.2330 105° East 560 644 36,000  Level FlightAware
Wed 03:26:57 AM 58.0060 -10.0460 105° East 556 640 36,000  Level FlightAware
Wed 03:27:42 AM 57.9660 -9.8400 110° East 557 641 36,000  Level FlightAware
Wed 03:28:22 AM 57.9270 -9.6620 112° Southeast 558 642 36,000  Level FlightAware
Wed 03:29:07 AM 57.8830 -9.4580 112° Southeast 559 643 36,000  Level FlightAware
Wed 03:29:47 AM 57.8430 -9.2760 112° Southeast 559 643 36,000  Level FlightAware
Wed 03:30:27 AM 57.8040 -9.1020 113° Southeast 553 636 36,000 -1,343 Level FlightAware
Wed 03:30:54 AM 57.7731 -8.9653 113° Southeast 482 555 34,500  Descending FlightAware
Wed 03:31:12 AM 57.7590 -8.9000 113° Southeast 551 634 36,000  Climbing FlightAware
Wed 03:31:30 AM 57.7377 -8.8066 113° Southeast 482 555 34,500 -2,500 Descending FlightAware
Wed 03:31:48 AM 57.7198 -8.7275 113° Southeast 482 555 34,500 4,091 Level FlightAware
Wed 03:31:52 AM 57.7190 -8.7260 113° Southeast 552 635 36,000  Climbing FlightAware
Wed 03:32:12 AM 57.6958 -8.6216 113° Southeast 482 555 34,500 -2,368 Descending FlightAware
Wed 03:32:30 AM 57.6778 -8.5416 113° Southeast 482 555 34,500 4,500 Level FlightAware
Wed 03:32:32 AM 57.6790 -8.5460 113° Southeast 553 636 36,000  Climbing FlightAware
Wed 03:32:48 AM 57.6592 -8.4617 113° Southeast 482 555 34,500 -2,647 Descending FlightAware
Wed 03:33:06 AM 57.6408 -8.3822 113° Southeast 482 555 34,500 3,103 Level FlightAware
Wed 03:33:17 AM 57.6340 -8.3500 113° Southeast 558 642 36,000  Climbing FlightAware
Wed 03:33:36 AM 57.6102 -8.2494 113° Southeast 484 557 34,500 -2,432 Descending FlightAware
Wed 03:33:54 AM 57.5917 -8.1698 113° Southeast 486 559 34,500 4,286 Level FlightAware
Wed 03:33:57 AM 57.5930 -8.1740 113° Southeast 562 647 36,000  Climbing FlightAware
Wed 03:34:12 AM 57.5731 -8.0900 113° Southeast 484 557 34,500 -2,727 Descending FlightAware
Wed 03:34:30 AM 57.5544 -8.0102 114° Southeast 486 559 34,500 3,000 Level FlightAware
Wed 03:34:42 AM 57.5450 -7.9720 114° Southeast 561 646 36,000  Climbing FlightAware
Wed 03:35:00 AM 57.5233 -7.8776 114° Southeast 484 557 34,500 -2,500 Descending FlightAware
Wed 03:35:18 AM 57.5045 -7.7986 114° Southeast 482 555 34,500 4,091 Level FlightAware
Wed 03:35:22 AM 57.5050 -7.8000 114° Southeast 559 643 36,000  Climbing FlightAware
Wed 03:35:42 AM 57.4794 -7.6934 114° Southeast 482 555 34,500 -2,368 Descending FlightAware
Wed 03:36:00 AM 57.4606 -7.6145 114° Southeast 484 557 34,500 3,600 Level FlightAware
Wed 03:36:07 AM 57.4570 -7.5980 114° Southeast 560 644 36,000  Climbing FlightAware
Wed 03:36:24 AM 57.4352 -7.5088 114° Southeast 484 557 34,500 -2,571 Descending FlightAware
Wed 03:36:42 AM 57.4164 -7.4302 114° Southeast 482 555 34,500 3,913 Level FlightAware
Wed 03:36:47 AM 57.4150 -7.4240 114° Southeast 558 642 36,000  Climbing FlightAware
Wed 03:37:06 AM 57.3912 -7.3257 114° Southeast 480 552 34,500 -2,432 Descending FlightAware
Wed 03:37:24 AM 57.3721 -7.2476 114° Southeast 482 555 34,500 4,286 Level FlightAware
Wed 03:37:27 AM 57.3720 -7.2490 114° Southeast 560 644 36,000  Climbing FlightAware
Wed 03:37:42 AM 57.3530 -7.1694 114° Southeast 480 552 34,500 -2,727 Descending FlightAware
Wed 03:38:00 AM 57.3338 -7.0911 114° Southeast 480 552 34,500 3,000 Level FlightAware
Wed 03:38:12 AM 57.3250 -7.0550 114° Southeast 557 641 36,000  Climbing FlightAware
Wed 03:38:30 AM 57.3017 -6.9606 114° Southeast 480 552 34,500 -2,500 Descending FlightAware
Wed 03:38:48 AM 57.2823 -6.8820 115° Southeast 482 555 34,500 4,091 Level FlightAware
Wed 03:38:52 AM 57.2820 -6.8820 115° Southeast 560 644 36,000  Climbing FlightAware
Wed 03:39:12 AM 57.2563 -6.7769 115° Southeast 480 552 34,500 -2,368 Descending FlightAware
Wed 03:39:30 AM 57.2367 -6.6981 115° Southeast 482 555 34,500 3,600 Level FlightAware
Wed 03:39:37 AM 57.2330 -6.6820 115° Southeast 561 646 36,000  Climbing FlightAware
Wed 03:39:54 AM 57.2105 -6.5933 115° Southeast 480 552 34,500 -2,571 Descending FlightAware
Wed 03:40:12 AM 57.1907 -6.5150 115° Southeast 480 552 34,500 3,913 Level FlightAware
Wed 03:40:17 AM 57.1890 -6.5100 115° Southeast 560 644 36,000  Climbing FlightAware
Wed 03:40:36 AM 57.1644 -6.4108 115° Southeast 482 555 34,500 -2,432 Descending FlightAware
Wed 03:40:54 AM 57.1447 -6.3327 115° Southeast 482 555 34,500 4,286 Level FlightAware
Wed 03:40:57 AM 57.1460 -6.3370 115° Southeast 559 643 36,000  Climbing FlightAware
Wed 03:41:12 AM 57.1251 -6.2547 115° Southeast 482 555 34,500 -2,727 Descending FlightAware
Wed 03:41:30 AM 57.1050 -6.1762 115° Southeast 482 555 34,500 3,000 Level FlightAware
Wed 03:41:42 AM 57.0970 -6.1450 115° Southeast 556 640 36,000  Climbing FlightAware
Wed 03:42:00 AM 57.0721 -6.0476 115° Southeast 478 550 34,500 -2,500 Descending FlightAware
Wed 03:42:18 AM 57.0523 -5.9711 115° Southeast 478 550 34,500 4,091 Level FlightAware
Wed 03:42:22 AM 57.0520 -5.9690 115° Southeast 557 641 36,000  Climbing FlightAware
Wed 03:42:42 AM 57.0259 -5.8691 115° Southeast 478 550 34,500 -2,368 Descending FlightAware
Wed 03:43:00 AM 57.0060 -5.7925 115° Southeast 476 548 34,500 3,600 Level FlightAware
Wed 03:43:07 AM 57.0030 -5.7810 115° Southeast 558 642 36,000  Climbing FlightAware
Wed 03:43:24 AM 56.9796 -5.6902 115° Southeast 478 550 34,500 -2,571 Descending FlightAware
Wed 03:43:42 AM 56.9595 -5.6136 116° Southeast 478 550 34,500 3,913 Level FlightAware
Wed 03:43:47 AM 56.9580 -5.6090 116° Southeast 559 643 36,000  Climbing FlightAware
Wed 03:44:06 AM 56.9326 -5.5115 116° Southeast 478 550 34,500 -2,432 Descending FlightAware
Wed 03:44:24 AM 56.9124 -5.4350 116° Southeast 478 550 34,500 4,286 Level FlightAware
Wed 03:44:27 AM 56.9130 -5.4380 116° Southeast 560 644 36,000  Climbing FlightAware
Wed 03:44:48 AM 56.8852 -5.3320 116° Southeast 478 550 34,500 -2,308 Descending FlightAware
Wed 03:45:06 AM 56.8648 -5.2554 116° Southeast 478 550 34,500 3,750 Level FlightAware
Wed 03:45:12 AM 56.8620 -5.2460 116° Southeast 562 647 36,000  Climbing FlightAware
Wed 03:45:30 AM 56.8377 -5.1531 116° Southeast 478 550 34,500 -2,500 Descending FlightAware
Wed 03:45:48 AM 56.8171 -5.0766 116° Southeast 480 552 34,500 4,091 Level FlightAware
Wed 03:45:52 AM 56.8150 -5.0700 116° Southeast 559 643 36,000 -250 Climbing FlightAware
Wed 03:46:12 AM 56.7896 -4.9745 116° Southeast 482 555 34,400 -2,368 Descending FlightAware
Wed 03:46:30 AM 56.7691 -4.8982 116° Southeast 480 552 34,500 4,800 Climbing FlightAware
Wed 03:46:32 AM 56.7700 -4.9020 116° Southeast 556 640 36,000  Climbing FlightAware
Wed 03:46:48 AM 56.7486 -4.8221 116° Southeast 480 552 34,500 -2,647 Descending FlightAware
Wed 03:47:06 AM 56.7281 -4.7464 116° Southeast 476 548 34,500 3,103 Level FlightAware
Wed 03:47:17 AM 56.7200 -4.7170 116° Southeast 554 638 36,000 -200 Climbing FlightAware
Wed 03:47:36 AM 56.6942 -4.6207 116° Southeast 480 552 34,400 -2,595 Descending FlightAware
Wed 03:47:54 AM 56.6772 -4.5410 111° Southeast 480 552 34,400 4,571 Level FlightAware
Wed 03:47:57 AM 56.6780 -4.5420 111° Southeast 566 651 36,000  Climbing FlightAware
Wed 03:48:12 AM 56.6608 -4.4611 111° Southeast 478 550 34,400 -2,727 Descending FlightAware
Wed 03:48:30 AM 56.6439 -4.3820 111° Southeast 476 548 34,500 3,200 Climbing FlightAware
Wed 03:48:42 AM 56.6360 -4.3450 111° Southeast 559 643 36,000  Climbing FlightAware
Wed 03:49:01 AM 56.6156 -4.2495 111° Southeast 478 550 34,500 -2,432 Descending FlightAware
Wed 03:49:19 AM 56.5986 -4.1704 111° Southeast 478 550 34,500 4,286 Level FlightAware
Wed 03:49:22 AM 56.5980 -4.1660 111° Southeast 561 646 36,000  Climbing FlightAware
Wed 03:49:43 AM 56.5762 -4.0649 111° Southeast 478 550 34,500 -2,308 Descending FlightAware
Wed 03:50:01 AM 56.5591 -3.9858 111° Southeast 476 548 34,500 4,737 Level FlightAware
Wed 03:50:02 AM 56.5610 -3.9940 111° Southeast 561 646 36,000  Climbing FlightAware
Wed 03:50:25 AM 56.5363 -3.8805 111° Southeast 480 552 34,500  Descending FlightAware
Wed 03:50:37 AM 56.5260 -3.8350 111° Southeast 565 650 36,000  Climbing FlightAware
Wed 03:51:07 AM 56.4962 -3.6963 111° Southeast 480 552 34,500  Descending FlightAware
Wed 03:52:02 AM 56.4490 -3.4830 112° Southeast 559 643 36,000  Climbing FlightAware
Wed 03:52:07 AM 56.4386 -3.4339 112° Southeast 476 548 34,500 -5,294 Descending FlightAware
Wed 03:52:19 AM 56.4270 -3.3823 112° Southeast 474 545 34,500  Level FlightAware
Wed 03:52:49 AM 56.3981 -3.2527 112° Southeast 476 548 34,500  Level FlightAware
Wed 03:53:07 AM 56.3805 -3.1739 112° Southeast 476 548 34,500 2,727 Level FlightAware
Wed 03:53:22 AM 56.3720 -3.1350 112° Southeast 562 647 36,000  Climbing FlightAware
Wed 03:53:55 AM 56.3338 -2.9672 112° Southeast 474 545 34,500  Descending FlightAware
Wed 03:54:02 AM 56.3320 -2.9610 112° Southeast 561 646 36,000  Climbing FlightAware
Wed 03:54:19 AM 56.3103 -2.8628 112° Southeast 476 548 34,500 -2,195 Descending FlightAware
Wed 03:54:43 AM 56.2864 -2.7586 112° Southeast 474 545 34,500 3,214 Level FlightAware
Wed 03:54:47 AM 56.2880 -2.7670 112° Southeast 561 646 36,000  Climbing FlightAware
Wed 03:55:07 AM 56.2628 -2.6554 112° Southeast 474 545 34,500  Descending FlightAware
Wed 03:55:27 AM 56.2490 -2.5940 112° Southeast 558 642 36,000  Climbing FlightAware
Wed 03:55:43 AM 56.2271 -2.5007 112° Southeast 476 548 34,500 -2,824 Descending FlightAware
Wed 03:56:01 AM 56.2091 -2.4232 113° Southeast 476 548 34,400 3,750 Descending FlightAware
Wed 03:56:07 AM 56.2090 -2.4210 113° Southeast 561 646 36,000 200 Climbing FlightAware
Wed 03:56:31 AM 56.1789 -2.2930 113° Southeast 476 548 34,500 -2,143 Descending FlightAware
Wed 03:56:49 AM 56.1610 -2.2163 113° Southeast 476 548 34,500 4,286 Level FlightAware
Wed 03:56:52 AM 56.1650 -2.2330 113° Southeast 561 646 36,000  Climbing FlightAware
Wed 03:57:13 AM 56.1364 -2.1122 113° Southeast 476 548 34,500  Descending FlightAware
Wed 03:57:32 AM 56.1230 -2.0570 113° Southeast 560 644 36,000  Climbing FlightAware
Wed 03:58:01 AM 56.0877 -1.9065 113° Southeast 478 550 34,500  Descending FlightAware
Wed 03:58:17 AM 56.0790 -1.8710 113° Southeast 557 641 36,000  Climbing FlightAware
Wed 03:58:38 AM 56.0511 -1.7525 113° Southeast 478 550 34,500 -2,308 Descending FlightAware
Wed 03:58:56 AM 56.0329 -1.6769 113° Southeast 476 548 34,500 4,737 Level FlightAware
Wed 03:58:57 AM 56.0410 -1.7110 113° Southeast 554 638 36,000  Climbing FlightAware
Wed 03:59:14 AM 56.0147 -1.6014 113° Southeast 474 545 34,500 -2,571 Descending FlightAware
Wed 03:59:32 AM 55.9962 -1.5251 113° Southeast 474 545 34,500 3,913 Level FlightAware
Wed 03:59:37 AM 55.9980 -1.5340 113° Southeast 552 635 36,000 -250 Climbing FlightAware
Wed 03:59:56 AM 55.9718 -1.4244 113° Southeast 474 545 34,400 -2,595 Descending FlightAware
Wed 04:00:14 AM 55.9534 -1.3489 113° Southeast 476 548 34,400 3,692 Level FlightAware
Wed 04:00:22 AM 55.9520 -1.3440 113° Southeast 553 636 36,000  Climbing FlightAware
Wed 04:00:38 AM 55.9289 -1.2482 113° Southeast 478 550 34,400  Descending FlightAware
Wed 04:01:02 AM 55.9110 -1.1750 113° Southeast 551 634 36,000 429 Climbing FlightAware
Wed 04:01:20 AM 55.8856 -1.0731 113° Southeast 474 545 34,700 -1,667 Descending FlightAware
Wed 04:01:38 AM 55.8669 -0.9975 114° Southeast 476 548 35,000 4,222 Climbing FlightAware
Wed 04:01:47 AM 55.8650 -0.9880 114° Southeast 553 636 36,600 2,449 Climbing FlightAware
Wed 04:02:27 AM 55.8230 -0.8220 114° Southeast 553 636 37,000 -1,263 Climbing FlightAware
Wed 04:02:44 AM 55.7987 -0.7240 114° Southeast 474 545 35,400  Descending FlightAware
Wed 04:03:07 AM 55.7860 -0.6750 114° Southeast 554 638 37,000 1,412 Climbing FlightAware
Wed 04:03:52 AM 55.7320 -0.4600 114° Southeast 554 638 37,000 -1,475 Level FlightAware
Wed 04:04:08 AM 55.7105 -0.3755 114° Southeast 474 545 35,500  Descending FlightAware
Wed 04:04:32 AM 55.6900 -0.2950 114° Southeast 554 638 37,000  Climbing FlightAware
Wed 04:04:50 AM 55.6663 -0.2019 114° Southeast 472 543 35,500  Descending FlightAware
Wed 04:05:07 AM 55.6540 -0.1530 114° Southeast 556 640 37,000  Climbing FlightAware
Wed 04:05:27 AM 55.6276 -0.0524 114° Southeast 472 543 35,500  Descending FlightAware
Wed 04:05:42 AM 55.6150 -0.0060 114° Southeast 557 641 37,000  Climbing FlightAware
Wed 04:05:57 AM 55.5951 0.0714 114° Southeast 474 545 35,500  Descending FlightAware
Wed 04:06:22 AM 55.5730 0.1560 114° Southeast 556 640 37,000  Climbing FlightAware
Wed 04:06:45 AM 55.5430 0.2697 114° Southeast 472 543 35,500  Descending FlightAware
Wed 04:07:07 AM 55.5220 0.3500 114° Southeast 556 640 37,000  Climbing FlightAware
Wed 04:07:27 AM 55.4972 0.4423 114° Southeast 474 545 35,500  Descending FlightAware
Wed 04:07:47 AM 55.4790 0.5100 114° Southeast 555 639 37,000  Climbing FlightAware
Wed 04:08:03 AM 55.4577 0.5881 114° Southeast 472 543 35,500 -2,647 Descending FlightAware
Wed 04:08:21 AM 55.4373 0.6627 116° Southeast 472 543 35,500 3,103 Level FlightAware
Wed 04:08:32 AM 55.4300 0.6910 116° Southeast 554 638 37,000  Climbing FlightAware
Wed 04:08:51 AM 55.4041 0.7843 116° Southeast 472 543 35,500  Descending FlightAware
Wed 04:09:12 AM 55.3890 0.8410 116° Southeast 555 639 37,000  Climbing FlightAware
Wed 04:09:33 AM 55.3578 0.9546 116° Southeast 476 548 35,500 -2,308 Descending FlightAware
Wed 04:09:51 AM 55.3375 1.0282 116° Southeast 474 545 35,500 2,647 Level FlightAware
Wed 04:10:07 AM 55.3230 1.0810 116° Southeast 551 634 37,000  Climbing FlightAware
Wed 04:10:33 AM 55.2907 1.1973 116° Southeast 474 545 35,500  Descending FlightAware
Wed 04:10:52 AM 55.2750 1.2550 116° Southeast 550 633 37,000  Climbing FlightAware
Wed 04:11:10 AM 55.2512 1.3424 116° Southeast 472 543 35,500  Descending FlightAware
Wed 04:11:32 AM 55.2310 1.4160 116° Southeast 549 632 37,000 1,452 Climbing FlightAware
Wed 04:12:12 AM 55.1880 1.5730 116° Southeast 551 634 37,000 -1,607 Level FlightAware
Wed 04:12:28 AM 55.1655 1.6540 116° Southeast 474 545 35,500 -2,250 Descending FlightAware
Wed 04:12:52 AM 55.1385 1.7508 116° Southeast 472 543 35,500 3,103 Level FlightAware
Wed 04:12:57 AM 55.1380 1.7510 116° Southeast 551 634 37,000 2,250 Climbing FlightAware
Wed 04:13:32 AM 55.1000 1.8880 116° Southeast 550 633 37,000 -2,432 Level FlightAware
Wed 04:13:34 AM 55.0917 1.9185 116° Southeast 474 545 35,500 -3,462 Descending FlightAware
Wed 04:13:58 AM 55.0650 2.0141 116° Southeast 470 541 35,500  Level FlightAware
Wed 04:14:16 AM 55.0446 2.0863 116° Southeast 472 543 35,500 3,750 Level FlightAware
Wed 04:14:22 AM 55.0440 2.0890 116° Southeast 551 634 37,000  Climbing FlightAware
Wed 04:14:40 AM 55.0176 2.1815 116° Southeast 474 545 35,500 -2,500 Descending FlightAware
Wed 04:14:58 AM 54.9973 2.2527 116° Southeast 474 545 35,500 2,432 Level FlightAware
Wed 04:15:17 AM 54.9840 2.3000 116° Southeast 549 632 37,000  Climbing FlightAware
Wed 04:15:34 AM 54.9564 2.3956 116° Southeast 474 545 35,500 -2,571 Descending FlightAware
Wed 04:15:52 AM 54.9360 2.4664 117° Southeast 472 543 35,500 3,913 Level FlightAware
Wed 04:15:57 AM 54.9380 2.4580 117° Southeast 548 631 37,000  Climbing FlightAware
Wed 04:16:16 AM 54.9091 2.5609 117° Southeast 472 543 35,500 -2,093 Descending FlightAware
Wed 04:16:40 AM 54.8819 2.6550 117° Southeast 474 545 35,500 3,462 Level FlightAware
Wed 04:16:42 AM 54.8870 2.6370 117° Southeast 549 632 37,000  Climbing FlightAware
Wed 04:16:58 AM 54.8614 2.7256 117° Southeast 472 543 35,500  Descending FlightAware
Wed 04:17:22 AM 54.8420 2.7940 117° Southeast 547 629 37,000  Climbing FlightAware
Wed 04:17:41 AM 54.8130 2.8920 117° Southeast 474 545 35,500  Descending FlightAware
Wed 04:18:07 AM 54.7900 2.9690 117° Southeast 548 631 37,000 1,364 Climbing FlightAware
Wed 04:18:47 AM 54.7480 3.1130 117° Southeast 548 631 37,000 -1,552 Level FlightAware
Wed 04:19:05 AM 54.7133 3.2194 117° Southeast 474 545 35,500  Descending FlightAware
Wed 04:19:27 AM 54.6960 3.2600 117° Southeast 550 633 37,000 2,432 Climbing FlightAware
Wed 04:19:42 AM 54.6610 3.3220 134° Southeast 533 613 37,000 -1,452 Level FlightAware
Wed 04:20:29 AM 54.5527 3.4263 134° Southeast 474 545 35,500  Descending FlightAware
Wed 04:20:37 AM 54.5610 3.4460 134° Southeast 527 606 37,000  Climbing FlightAware
Wed 04:21:02 AM 54.4930 3.4470 134° Southeast 37,000 -3,214 Level FlightAware
Wed 04:21:05 AM 54.4722 3.4502 134° Southeast 474 545 35,500 -6,000 Descending FlightAware
Wed 04:21:17 AM 54.4455 3.4522 134° Southeast 474 545 35,500 2,813 Level FlightAware
Wed 04:21:37 AM 54.4150 3.4570 134° Southeast 486 559 37,000  Climbing FlightAware
Wed 04:22:05 AM 54.3381 3.4653 134° Southeast 474 545 35,500  Descending FlightAware
Wed 04:22:12 AM 54.3330 3.4660 134° Southeast 485 558 37,000  Climbing FlightAware
Wed 04:22:47 AM 54.2443 3.4753 134° Southeast 476 548 35,500  Descending FlightAware
Wed 04:22:57 AM 54.2340 3.4760 134° Southeast 484 557 37,000  Climbing FlightAware
Wed 04:23:17 AM 54.1773 3.4824 134° Southeast 474 545 35,500  Descending FlightAware
Wed 04:23:42 AM 54.1280 3.4870 134° Southeast 483 556 37,000  Climbing FlightAware
Wed 04:24:05 AM 54.0702 3.4936 134° Southeast 474 545 35,500  Descending FlightAware
Wed 04:24:27 AM 54.0330 3.4960 134° Southeast 480 552 37,000  Climbing FlightAware
Wed 04:24:47 AM 53.9774 3.4941 134° Southeast 472 543 35,500 -2,368 Descending FlightAware
Wed 04:25:05 AM 53.9376 3.4925 181° South 476 548 35,500 4,500 Level FlightAware
Wed 04:25:07 AM 53.9460 3.4920 181° South 478 550 37,000  Climbing FlightAware
Wed 04:25:41 AM 53.8583 3.4891 181° South 474 545 35,500  Descending FlightAware
Wed 04:25:52 AM 53.8390 3.4880 181° South 480 552 37,000  Climbing FlightAware
Wed 04:26:23 AM 53.7653 3.4845 181° South 474 545 35,500  Descending FlightAware
Wed 04:26:32 AM 53.7530 3.4830 181° South 479 551 37,000 2,045 Climbing FlightAware
Wed 04:27:07 AM 53.6830 3.4790 182° South 480 552 37,000 -1,579 Level FlightAware
Wed 04:27:29 AM 53.6193 3.4758 182° South 474 545 35,500 -1,957 Descending FlightAware
Wed 04:27:53 AM 53.5662 3.4728 182° South 474 545 35,500 3,214 Level FlightAware
Wed 04:27:57 AM 53.5640 3.4720 182° South 480 552 37,000  Climbing FlightAware
Wed 04:28:35 AM 53.4731 3.4666 182° South 474 545 35,500  Descending FlightAware
Wed 04:28:37 AM 53.4750 3.4670 182° South 483 556 37,000  Climbing FlightAware
Wed 04:28:59 AM 53.4197 3.4628 182° South 476 548 35,500  Descending FlightAware
Wed 04:29:22 AM 53.3740 3.4590 182° South 483 556 37,000  Climbing FlightAware
Wed 04:29:41 AM 53.3261 3.4559 182° South 476 548 35,500  Descending FlightAware
Wed 04:30:02 AM 53.2880 3.4530 182° South 481 554 37,000  Climbing FlightAware
Wed 04:30:17 AM 53.2459 3.4496 182° South 474 545 35,500  Descending FlightAware
Wed 04:30:42 AM 53.1980 3.4450 182° South 482 555 37,000  Climbing FlightAware
Wed 04:31:11 AM 53.1258 3.4388 182° South 474 545 35,500  Descending FlightAware
Wed 04:31:17 AM 53.1230 3.4380 182° South 482 555 37,000  Climbing FlightAware
Wed 04:31:35 AM 53.0725 3.4337 182° South 474 545 35,500 -2,500 Descending FlightAware
Wed 04:31:53 AM 53.0324 3.4297 183° South 474 545 35,500 2,432 Level FlightAware
Wed 04:32:12 AM 52.9980 3.4260 183° South 484 557 37,000  Climbing FlightAware
Wed 04:32:17 AM 52.9789 3.4243 183° South 476 548 35,500  Descending FlightAware
Wed 04:32:37 AM 52.9390 3.4320 176° South 499 574 37,000  Climbing FlightAware
Wed 04:32:59 AM 52.8850 3.4610 176° South 474 545 35,500  Descending FlightAware
Wed 04:33:17 AM 52.8520 3.4900 176° South 520 598 37,000  Climbing FlightAware
Wed 04:33:47 AM 52.7936 3.5776 176° South 474 545 35,500  Descending FlightAware
Wed 04:34:02 AM 52.7770 3.6160 176° South 535 616 37,000  Climbing FlightAware
Wed 04:34:17 AM 52.7556 3.6825 176° South 474 545 35,500  Descending FlightAware
Wed 04:34:42 AM 52.7310 3.7610 176° South 538 619 37,000  Climbing FlightAware
Wed 04:34:59 AM 52.7089 3.8362 176° South 474 545 35,500  Descending FlightAware
Wed 04:35:22 AM 52.6870 3.9120 176° South 537 618 37,000  Climbing FlightAware
Wed 04:35:41 AM 52.6639 3.9910 176° South 474 545 35,500  Descending FlightAware
Wed 04:36:07 AM 52.6390 4.0740 176° South 537 618 37,000 1,364 Climbing FlightAware
Wed 04:36:47 AM 52.5960 4.2200 116° Southeast 537 618 37,000 -1,406 Level FlightAware
Wed 04:37:11 AM 52.5659 4.3204 116° Southeast 474 545 35,500  Descending FlightAware
Wed 04:37:32 AM 52.5450 4.3890 116° Southeast 537 618 37,000  Climbing FlightAware
Wed 04:37:53 AM 52.5200 4.4738 116° Southeast 476 548 35,500  Descending FlightAware
Wed 04:38:12 AM 52.5030 4.5310 116° Southeast 535 616 37,000  Climbing FlightAware
Wed 04:38:35 AM 52.4740 4.6274 116° Southeast 474 545 35,500  Descending FlightAware
Wed 04:38:52 AM 52.4590 4.6760 116° Southeast 533 613 37,000 -111 Climbing FlightAware
Wed 04:39:29 AM 52.4156 4.8226 116° Southeast 472 543 35,400  Descending FlightAware
Wed 04:39:37 AM 52.4100 4.8370 116° Southeast 522 601 37,000 143 Climbing FlightAware
Wed 04:40:11 AM 52.3688 4.9686 116° Southeast 464 534 35,500  Descending FlightAware
Wed 04:40:17 AM 52.3670 4.9790 116° Southeast 524 603 37,000  Climbing FlightAware
Wed 04:40:35 AM 52.3441 5.0542 116° Southeast 466 536 35,500 -2,500 Descending FlightAware
Wed 04:40:53 AM 52.3254 5.1189 115° Southeast 468 539 35,500 4,091 Level FlightAware
Wed 04:40:57 AM 52.3260 5.1130 115° Southeast 525 604 37,000  Climbing FlightAware
Wed 04:41:35 AM 52.2864 5.2717 115° Southeast 468 539 35,500  Descending FlightAware
Wed 04:41:42 AM 52.2790 5.2650 115° Southeast 526 605 37,000  Climbing FlightAware
Wed 04:41:59 AM 52.2556 5.3536 115° Southeast 468 539 35,500  Descending FlightAware
Wed 04:42:22 AM 52.2220 5.4070 115° Southeast 523 602 37,000 1,324 Climbing FlightAware
Wed 04:43:07 AM 52.1510 5.5400 131° Southeast 523 602 37,000 -1,475 Level FlightAware
Wed 04:43:23 AM 52.1223 5.6038 131° Southeast 468 539 35,500  Descending FlightAware
Wed 04:43:47 AM 52.0880 5.6590 131° Southeast 523 602 37,000  Climbing FlightAware
Wed 04:44:05 AM 52.0508 5.7259 131° Southeast 466 536 35,500 -2,500 Descending FlightAware
Wed 04:44:23 AM 52.0233 5.7799 130° Southeast 468 539 35,500 4,091 Level FlightAware
Wed 04:44:27 AM 52.0250 5.7780 130° Southeast 523 602 37,000  Climbing FlightAware
Wed 04:44:47 AM 51.9858 5.8513 130° Southeast 468 539 35,500  Descending FlightAware
Wed 04:45:12 AM 51.9510 5.9150 130° Southeast 523 602 37,000 1,385 Climbing FlightAware
Wed 04:45:52 AM 51.8920 6.0250 131° Southeast 523 602 37,000  Level FlightAware
Wed 04:46:37 AM 51.8190 6.1600 131° Southeast 525 604 37,000 -1,129 Level FlightAware
Wed 04:47:17 AM 51.7610 6.2890 126° Southeast 529 609 35,400 -1,976 Descending FlightAware
Wed 04:48:02 AM 51.7060 6.4310 122° Southeast 519 597 34,200 -1,271 Descending FlightAware
Wed 04:48:42 AM 51.6560 6.5580 122° Southeast 516 594 33,600 -1,425 Descending FlightAware
Wed 04:49:22 AM 51.5850 6.6760 134° Southeast 503 579 32,300 -1,624 Descending FlightAware
Wed 04:50:07 AM 51.5090 6.7910 137° Southeast 481 554 31,300 -1,553 Descending FlightAware
Wed 04:50:47 AM 51.4460 6.8850 137° Southeast 472 543 30,100 -1,835 Descending FlightAware
Wed 04:51:32 AM 51.3780 6.9870 137° Southeast 466 536 28,700 -1,906 Descending FlightAware
Wed 04:52:12 AM 51.3130 7.0840 137° Southeast 456 525 27,400 -1,875 Descending FlightAware
Wed 04:52:52 AM 51.2460 7.1660 143° Southeast 443 510 26,200 -1,050 Descending FlightAware
Wed 04:53:32 AM 51.1770 7.2220 153° Southeast 440 506 26,000 -141 Descending FlightAware
Wed 04:54:17 AM 51.1090 7.2790 152° Southeast 440 506 26,000 -333 Level FlightAware
Wed 04:55:02 AM 51.0320 7.3540 149° Southeast 440 506 25,500 -1,412 Descending FlightAware
Wed 04:55:42 AM 50.9580 7.4260 148° Southeast 435 501 24,000 -2,175 Descending FlightAware
Wed 04:56:22 AM 50.8880 7.4940 148° Southeast 430 495 22,600 -2,080 Descending FlightAware
Wed 04:56:57 AM 50.8290 7.5500 149° Southeast 426 490 21,400 -2,200 Descending FlightAware
Wed 04:57:22 AM 50.7910 7.6060 137° Southeast 427 491 20,400 -2,031 Descending FlightAware
Wed 04:58:02 AM 50.7540 7.6980 122° Southeast 421 484 19,200 -2,025 Descending FlightAware
Wed 04:58:42 AM 50.7090 7.8080 123° Southeast 415 478 17,700 -1,950 Descending FlightAware
Wed 04:59:22 AM 50.6760 7.8890 123° Southeast 410 472 16,600 -2,025 Descending FlightAware
Wed 05:00:02 AM 50.6260 8.0080 123° Southeast 401 461 15,000 -2,333 Descending FlightAware
Wed 05:00:52 AM 50.5730 8.1370 123° Southeast 393 452 13,100 -2,200 Descending FlightAware
Wed 05:01:32 AM 50.5340 8.2320 123° Southeast 380 437 11,700 -2,100 Descending FlightAware
Wed 05:02:12 AM 50.4970 8.3210 123° Southeast 364 419 10,300 -1,457 Descending FlightAware
Wed 05:02:42 AM 50.4700 8.3860 123° Southeast 339 390 10,000 -300 Descending FlightAware
Wed 05:03:12 AM 50.4460 8.4440 123° Southeast 309 356 10,000  Level FlightAware
Wed 05:03:52 AM 50.4140 8.5190 124° Southeast 298 343 10,000  Level FlightAware
Wed 05:04:17 AM 50.3960 8.5620 123° Southeast 297 342 10,000  Level FlightAware
Wed 05:04:32 AM 50.3850 8.5890 123° Southeast 282 325 10,000  Level FlightAware
Wed 05:05:17 AM 50.3540 8.6620 124° Southeast 264 304 10,000 -343 Level FlightAware
Wed 05:05:42 AM 50.3370 8.7050 122° Southeast 262 302 9,600 -1,050 Descending FlightAware
Wed 05:05:57 AM 50.3330 8.7320 103° East 268 308 9,300 -800 Descending FlightAware
Wed 05:06:27 AM 50.3260 8.7920 100° East 268 308 9,000 -327 Descending FlightAware
Wed 05:06:52 AM 50.3210 8.8390 99° East 267 307 9,000  Level FlightAware
Wed 05:07:07 AM 50.3180 8.8680 99° East 266 306 9,000 -600 Level FlightAware
Wed 05:07:22 AM 50.3100 8.8920 118° Southeast 264 304 8,700 -1,000 Descending FlightAware
Wed 05:07:37 AM 50.3000 8.9060 138° Southeast 249 287 8,500 -1,200 Descending FlightAware
Wed 05:07:52 AM 50.2790 8.9170 161° South 248 285 8,100 -1,050 Descending FlightAware
Wed 05:08:17 AM 50.2510 8.9250 170° South 245 282 7,800 -1,091 Descending FlightAware
Wed 05:08:47 AM 50.2180 8.9190 187° South 240 276 7,100 -1,600 Descending FlightAware
Wed 05:09:17 AM 50.1840 8.9110 189° South 235 270 6,200 -1,964 Descending FlightAware
Wed 05:09:42 AM 50.1580 8.9040 190° South 239 275 5,300 -2,100 Descending FlightAware
Wed 05:09:57 AM 50.1410 8.8990 191° South 235 270 4,800 -1,200 Descending FlightAware
Wed 05:10:27 AM 50.1130 8.8830 200° South 206 237 4,400 -1,050 Descending FlightAware
Wed 05:10:37 AM 50.1070 8.8700 234° Southwest 204 235 4,100 -1,800 Descending FlightAware
Wed 05:11:07 AM 50.0980 8.8300 251° West 200 230 3,200 -1,200 Descending FlightAware
Wed 05:11:37 AM 50.0890 8.7920 250° West 181 208 2,900 -873 Descending FlightAware
Wed 05:12:02 AM 50.0820 8.7620 250° West 181 208 2,400 -1,200 Descending FlightAware
Wed 05:12:17 AM 50.0770 8.7430 248° West 174 200 2,100 -1,067 Descending FlightAware
Wed 05:12:47 AM 50.0700 8.7100 252° West 153 176 1,600 -873 Descending FlightAware
Wed 05:13:12 AM 50.0640 8.6860 249° West 149 171 1,300 -764 Descending FlightAware
Wed 05:13:42 AM 50.0560 8.6540 249° West 151 174 900 -800 Descending FlightAware
Wed 05:13:57 AM 50.0520 8.6370 250° West 150 173 700 -750 Descending FlightAware
Wed 05:14:22 AM 50.0470 8.6140 251° West 151 174 400 -750 Descending FlightAware
Wed 05:14:37 AM 50.0430 8.5980 249° West 148 170 200 -800 Descending FlightAware

Login

Don't have an account? Register now (free) for customized features, flight alerts, and more!